logo
Search for airport 
image banner adimage banner adimage banner ad
image banner ad

ED1665 - Luebbecke Kkrhs.

Located in Luebbecke, Germany

ICAO - , IATA -

Data provided by Airmate  

General information

Coordinates: N52°17'46" E8°36'8"
Elevation is 342 feet MSL.
 
View others Airports in North Rhine-Westphalia

Operational data

Special qualification required
Current time UTC:
Current local time:
Weather at : ETHB - Bueckeburg ( 33 km )
METAR: ETHB 220120Z AUTO 27009KT 9999 // ////// 15/13 Q1011 ///
View NOTAMs / SUP AIP / TFR affecting this airport [VIEW]
Communications frequencies: [VIEW]

Runways:

Airport contact information

Address: Luebbecke Germany

Satellite view of ED1665